Accueil
METAR-TAF:

METAR-TAF

Aéroports :

Aéroport international Léopold-Sédar-Senghor

Dakar, Sénégal

latitude: 14-44N, longitude: 017-30W, altitude: 27 m

Observation

Le bulletin a été fait il y a 1 heure et 13 minutes, à 16:00 UTC
Vent 14 kt de nord
Température 27°C
Humidité 54%
Pression 1011 hPa
Visibilité 10 km ou plus
pas de nuages en-dessous de 1500 mètres et pas de cumulonimbus.

METAR: GOOY 211600Z 36014KT CAVOK 27/17 Q1011

Heure: 17:13 (17:13 UTC)

Prévision

Le bulletin a été fait il y a 5 heures et 43 minutes, à 11:30 UTC
Prévision valable du 21 à 12 UTC au 22 à 18 UTC
Vent 12 kt de nord/nord-est
Visibilité 10 km ou plus
pas de nuages en-dessous de 1500 mètres et pas de cumulonimbus.

TAF: GOOY 211130Z 2112/2218 02012KT CAVOK

Observations et prévisions météorologiques de plus de 4000 aéroports (messages METAR et TAF).

Les stations disponibles sont représentées par des disques jaunes et rouges sur la carte.

Passer la souris dessus pour voir le nom de la station.

Cliquer dessus pour voir les observations et prévisions météorologiques.

Pour changer de carte: cliquez sur les boutons verts avec une croix noire pour zoomer, sur le bouton vert avec un tiret pour effectuer un zoom arrière, ou sur les flèches vertes pour les cartes adjacentes.


METAR-TAF: